createdAt,value
2018-12-30T00:00:58.552Z,101651.42
2018-12-30T00:03:27.299Z,101659.48
2018-12-30T00:05:56.238Z,101653.08
2018-12-30T00:08:25.185Z,101662.20
2018-12-30T00:10:54.146Z,101660.13
2018-12-30T00:13:23.125Z,101664.59
2018-12-30T00:15:51.841Z,101660.95
2018-12-30T00:18:20.593Z,101654.80
2018-12-30T00:20:49.365Z,101657.11
2018-12-30T00:23:18.512Z,101657.37
2018-12-30T00:25:47.241Z,101652.46
2018-12-30T00:28:16.023Z,101654.89
2018-12-30T00:30:44.708Z,101645.12
2018-12-30T00:33:13.326Z,101653.03
2018-12-30T00:35:41.985Z,101639.51
2018-12-30T00:38:10.657Z,101645.33
2018-12-30T00:40:39.294Z,101663.11
2018-12-30T00:43:07.947Z,101667.69
2018-12-30T00:45:36.595Z,101678.50
2018-12-30T00:48:05.228Z,101680.43
2018-12-30T00:50:34.037Z,101693.33
2018-12-30T00:53:02.647Z,101684.73
2018-12-30T00:55:31.321Z,101689.89
2018-12-30T00:58:00.905Z,101690.13
2018-12-30T01:00:29.579Z,101696.56
2018-12-30T01:02:58.345Z,101703.28
2018-12-30T01:05:27.301Z,101696.11
2018-12-30T01:07:56.002Z,101706.88
2018-12-30T01:10:24.713Z,101695.27
2018-12-30T01:12:53.366Z,101705.15
2018-12-30T01:15:22.062Z,101696.86
2018-12-30T01:17:50.702Z,101705.48
2018-12-30T01:20:19.457Z,101701.73
2018-12-30T01:22:48.115Z,101694.16
2018-12-30T01:25:16.794Z,101693.77
2018-12-30T01:27:45.416Z,101698.16
2018-12-30T01:30:14.129Z,101700.56
2018-12-30T01:32:42.943Z,101702.41
2018-12-30T01:35:11.655Z,101706.73
2018-12-30T01:37:40.294Z,101718.47
2018-12-30T01:40:09.020Z,101711.56
2018-12-30T01:42:37.727Z,101711.86
2018-12-30T01:45:06.510Z,101722.79
2018-12-30T01:47:35.145Z,101735.45
2018-12-30T01:50:03.828Z,101733.98
2018-12-30T01:52:32.505Z,101726.59
2018-12-30T01:55:01.137Z,101736.45
2018-12-30T01:57:29.809Z,101745.27
2018-12-30T01:59:58.503Z,101742.97
2018-12-30T02:02:27.125Z,101758.66
2018-12-30T02:04:55.801Z,101749.19
2018-12-30T02:07:24.481Z,101755.92
2018-12-30T02:09:53.091Z,101749.41
2018-12-30T02:12:22.037Z,101749.03
2018-12-30T02:14:50.675Z,101761.99
2018-12-30T02:17:19.342Z,101762.83
2018-12-30T02:19:47.976Z,101771.73
2018-12-30T02:22:16.599Z,101764.52
2018-12-30T02:24:45.522Z,101762.47
2018-12-30T02:27:14.187Z,101774.88
2018-12-30T02:29:42.910Z,101778.81
2018-12-30T02:32:11.580Z,101763.33
2018-12-30T02:34:40.186Z,101768.02
2018-12-30T02:37:09.082Z,101778.87
2018-12-30T02:39:37.759Z,101775.43
2018-12-30T02:42:06.397Z,101775.80
2018-12-30T02:44:35.088Z,101780.22
2018-12-30T02:47:03.701Z,101775.59
2018-12-30T02:49:32.534Z,101778.11
2018-12-30T02:52:01.178Z,101782.20
2018-12-30T02:54:29.847Z,101784.64
2018-12-30T02:56:58.558Z,101783.80
2018-12-30T02:59:27.165Z,101791.00
2018-12-30T03:01:56.106Z,101783.50
2018-12-30T03:04:24.818Z,101800.48
2018-12-30T03:06:53.478Z,101803.32
2018-12-30T03:09:22.091Z,101795.54
2018-12-30T03:11:50.703Z,101795.00
2018-12-30T03:14:19.656Z,101792.33
2018-12-30T03:16:48.297Z,101788.24
2018-12-30T03:19:16.963Z,101795.42
2018-12-30T03:21:45.602Z,101797.46
2018-12-30T03:24:14.254Z,101801.08
2018-12-30T03:26:42.926Z,101801.41
2018-12-30T03:29:11.710Z,101812.01
2018-12-30T03:31:40.284Z,101812.33
2018-12-30T03:34:08.934Z,101812.42
2018-12-30T03:36:37.647Z,101817.28
2018-12-30T03:39:07.868Z,101817.39
2018-12-30T03:41:36.549Z,101821.50
2018-12-30T03:44:05.262Z,101830.23
2018-12-30T03:46:33.874Z,101841.44
2018-12-30T03:49:02.501Z,101843.13
2018-12-30T03:51:31.139Z,101839.63
2018-12-30T03:53:59.748Z,101835.36
2018-12-30T03:56:28.472Z,101838.50
2018-12-30T03:58:57.086Z,101851.69
2018-12-30T04:01:25.819Z,101852.97
2018-12-30T04:03:54.474Z,101850.77
2018-12-30T04:06:23.130Z,101848.12
2018-12-30T04:08:51.737Z,101845.08
2018-12-30T04:11:20.413Z,101851.10
2018-12-30T04:13:49.214Z,101848.11
2018-12-30T04:16:17.878Z,101848.49
2018-12-30T04:18:46.531Z,101851.47
2018-12-30T04:21:15.219Z,101856.86
2018-12-30T04:23:43.895Z,101861.76
2018-12-30T04:26:12.547Z,101857.88
2018-12-30T04:28:41.185Z,101861.70
2018-12-30T04:31:09.819Z,101853.02
2018-12-30T04:33:38.497Z,101865.19
2018-12-30T04:36:07.175Z,101860.26
2018-12-30T04:38:35.789Z,101872.06
2018-12-30T04:41:04.515Z,101868.89
2018-12-30T04:43:33.180Z,101883.31
2018-12-30T04:46:01.830Z,101886.92
2018-12-30T04:48:30.470Z,101897.77
2018-12-30T04:50:59.120Z,101892.70
2018-12-30T04:53:27.739Z,101904.58
2018-12-30T04:55:56.436Z,101902.34
2018-12-30T04:58:25.084Z,101894.34
2018-12-30T05:00:53.704Z,101892.05
2018-12-30T05:03:22.386Z,101896.10
2018-12-30T05:05:51.045Z,101902.28
2018-12-30T05:08:19.712Z,101900.67
2018-12-30T05:10:48.376Z,101910.77
2018-12-30T05:13:17.061Z,101915.06
2018-12-30T05:15:45.817Z,101908.73
2018-12-30T05:18:14.454Z,101920.79
2018-12-30T05:20:43.142Z,101913.03
2018-12-30T05:23:11.885Z,101909.37
2018-12-30T05:25:40.506Z,101920.25
2018-12-30T05:28:09.173Z,101921.94
2018-12-30T05:30:37.821Z,101921.76
2018-12-30T05:33:06.472Z,101923.66
2018-12-30T05:35:35.111Z,101936.20
2018-12-30T05:38:03.767Z,101942.73
2018-12-30T05:40:32.412Z,101942.02
2018-12-30T05:43:01.114Z,101955.64
2018-12-30T05:45:29.769Z,101960.39
2018-12-30T05:47:58.416Z,101956.59
2018-12-30T05:50:27.066Z,101965.67
2018-12-30T05:52:55.741Z,101977.14
2018-12-30T05:55:24.365Z,101973.80
2018-12-30T05:57:53.057Z,101978.27
2018-12-30T06:00:21.673Z,101970.63
2018-12-30T06:02:50.297Z,101986.00
2018-12-30T06:05:18.941Z,101978.48
2018-12-30T06:07:47.624Z,101998.61
2018-12-30T06:10:16.305Z,102010.61
2018-12-30T06:12:45.001Z,102026.89
2018-12-30T06:15:13.709Z,102024.38
2018-12-30T06:17:42.387Z,102026.34
2018-12-30T06:20:11.016Z,102035.93
2018-12-30T06:22:39.641Z,102039.85
2018-12-30T06:25:08.253Z,102043.55
2018-12-30T06:27:36.914Z,102046.92
2018-12-30T06:30:05.719Z,102058.28
2018-12-30T06:32:34.353Z,102060.17
2018-12-30T06:35:02.984Z,102065.88
2018-12-30T06:37:31.658Z,102067.20
2018-12-30T06:40:00.301Z,102058.66
2018-12-30T06:42:28.928Z,102060.47
2018-12-30T06:44:57.576Z,102060.25
2018-12-30T06:47:26.189Z,102058.09
2018-12-30T06:49:54.875Z,102075.20
2018-12-30T06:52:23.492Z,102059.98
2018-12-30T06:54:52.244Z,102057.95
2018-12-30T06:57:20.896Z,102051.55
2018-12-30T06:59:49.541Z,102058.36
2018-12-30T07:02:18.703Z,102061.35
2018-12-30T07:04:47.371Z,102057.02
2018-12-30T07:07:16.002Z,102049.88
2018-12-30T07:09:44.666Z,102062.02
2018-12-30T07:12:13.291Z,102072.14
2018-12-30T07:14:41.960Z,102065.45
2018-12-30T07:17:10.567Z,102068.14
2018-12-30T07:19:39.205Z,102076.19
2018-12-30T07:22:07.819Z,102070.63
2018-12-30T07:24:36.439Z,102091.02
2018-12-30T07:27:05.126Z,102092.03
2018-12-30T07:29:33.747Z,102103.55
2018-12-30T07:32:02.522Z,102107.45
2018-12-30T07:34:31.217Z,102115.34
2018-12-30T07:36:59.902Z,102120.34
2018-12-30T07:39:28.549Z,102127.50
2018-12-30T07:41:57.151Z,102127.50
2018-12-30T07:44:25.836Z,102144.00
2018-12-30T07:46:54.479Z,102155.16
2018-12-30T07:49:23.180Z,102164.09
2018-12-30T07:51:51.841Z,102173.50
2018-12-30T07:54:20.480Z,102177.40
2018-12-30T07:56:49.105Z,102169.52
2018-12-30T07:59:17.752Z,102187.95
2018-12-30T08:01:46.518Z,102193.70
2018-12-30T08:04:15.093Z,102196.36
2018-12-30T08:06:43.758Z,102199.02
2018-12-30T08:09:12.382Z,102193.08
2018-12-30T08:11:41.000Z,102187.51
2018-12-30T08:14:09.716Z,102178.54
2018-12-30T08:16:38.331Z,102193.50
2018-12-30T08:19:06.952Z,102190.03
2018-12-30T08:21:35.582Z,102180.91
2018-12-30T08:24:04.227Z,102178.79
2018-12-30T08:26:32.853Z,102186.78
2018-12-30T08:29:01.494Z,102199.56
2018-12-30T08:31:30.124Z,102197.91
2018-12-30T08:33:58.788Z,102205.62
2018-12-30T08:36:27.413Z,102217.30
2018-12-30T08:38:56.058Z,102211.50
2018-12-30T08:41:24.704Z,102204.09
2018-12-30T08:43:53.334Z,102210.75
2018-12-30T08:46:22.006Z,102201.62
2018-12-30T08:48:50.613Z,102210.22
2018-12-30T08:51:19.249Z,102211.27
2018-12-30T08:53:47.866Z,102220.96
2018-12-30T08:56:16.550Z,102216.39
2018-12-30T08:58:45.185Z,102221.72
2018-12-30T09:01:13.844Z,102224.34
2018-12-30T09:03:42.489Z,102223.95
2018-12-30T09:06:11.097Z,102227.75
2018-12-30T09:08:39.763Z,102234.05
2018-12-30T09:11:08.378Z,102233.23
2018-12-30T09:13:37.012Z,102249.94
2018-12-30T09:16:05.627Z,102241.78
2018-12-30T09:18:34.280Z,102236.91
2018-12-30T09:21:02.961Z,102246.10
2018-12-30T09:23:37.267Z,102241.39
2018-12-30T09:26:02.460Z,102244.06
2018-12-30T09:28:31.201Z,102249.05
2018-12-30T09:30:59.921Z,102243.09
2018-12-30T09:33:28.571Z,102252.62
2018-12-30T09:35:57.189Z,102251.52
2018-12-30T09:38:25.948Z,102252.45
2018-12-30T09:40:54.570Z,102259.20
2018-12-30T09:43:23.253Z,102260.05
2018-12-30T09:45:51.924Z,102262.33
2018-12-30T09:48:20.563Z,102264.23
2018-12-30T09:50:49.360Z,102266.49
2018-12-30T09:53:18.033Z,102263.60
2018-12-30T09:55:46.663Z,102261.00
2018-12-30T09:58:15.286Z,102257.63
2018-12-30T10:00:43.938Z,102260.23
2018-12-30T10:03:12.614Z,102255.36
2018-12-30T10:05:41.288Z,102268.70
2018-12-30T10:08:09.918Z,102262.72
2018-12-30T10:10:38.550Z,102272.52
2018-12-30T10:13:07.228Z,102269.77
2018-12-30T10:15:35.870Z,102284.59
2018-12-30T10:18:04.517Z,102282.33
2018-12-30T10:20:33.144Z,102293.31
2018-12-30T10:23:01.879Z,102292.13
2018-12-30T10:25:30.552Z,102292.48
2018-12-30T10:27:59.186Z,102306.02
2018-12-30T10:30:27.830Z,102293.89
2018-12-30T10:32:56.447Z,102281.92
2018-12-30T10:35:25.134Z,102285.08
2018-12-30T10:37:53.808Z,102280.30
2018-12-30T10:40:29.011Z,102282.84
2018-12-30T10:42:57.655Z,102280.95
2018-12-30T10:45:26.306Z,102284.55
2018-12-30T10:47:54.922Z,102284.33
2018-12-30T10:50:23.618Z,102279.22
2018-12-30T10:52:52.451Z,102273.95
2018-12-30T10:55:21.098Z,102283.15
2018-12-30T10:57:49.758Z,102289.23
2018-12-30T11:00:18.490Z,102299.02
2018-12-30T11:02:47.161Z,102299.83
2018-12-30T11:05:15.833Z,102292.30
2018-12-30T11:07:44.581Z,102298.46
2018-12-30T11:10:16.217Z,102301.94
2018-12-30T11:12:44.836Z,102308.62
2018-12-30T11:15:13.583Z,102307.44
2018-12-30T11:17:42.204Z,102311.33
2018-12-30T11:20:10.948Z,102301.83
2018-12-30T11:22:39.682Z,102305.17
2018-12-30T11:25:08.436Z,102302.95
2018-12-30T11:27:37.075Z,102299.27
2018-12-30T11:30:06.614Z,102294.13
2018-12-30T11:32:35.652Z,102294.97
2018-12-30T11:35:04.449Z,102289.93
2018-12-30T11:37:33.274Z,102285.52
2018-12-30T11:40:01.950Z,102291.27
2018-12-30T11:42:30.648Z,102275.58
2018-12-30T11:45:01.807Z,102277.41
2018-12-30T11:47:30.508Z,102266.39
2018-12-30T11:49:59.210Z,102263.66
2018-12-30T11:52:28.351Z,102257.98
2018-12-30T11:54:57.245Z,102249.69
2018-12-30T11:57:26.146Z,102247.80
2018-12-30T11:59:54.869Z,102239.02
2018-12-30T12:02:24.386Z,102237.04
2018-12-30T12:04:53.224Z,102238.23
2018-12-30T12:07:22.031Z,102234.78
2018-12-30T12:09:50.674Z,102242.23
2018-12-30T12:12:19.306Z,102242.60
2018-12-30T12:14:48.217Z,102231.15
2018-12-30T12:17:16.868Z,102229.73
2018-12-30T12:19:45.685Z,102224.14
2018-12-30T12:22:14.282Z,102215.12
2018-12-30T12:24:42.948Z,102219.21
2018-12-30T12:27:11.580Z,102213.23
2018-12-30T12:29:40.405Z,102218.86
2018-12-30T12:32:09.051Z,102215.90
2018-12-30T12:34:37.737Z,102220.17
2018-12-30T12:37:06.353Z,102220.11
2018-12-30T12:39:35.131Z,102227.19
2018-12-30T12:42:03.884Z,102223.96
2018-12-30T12:44:32.589Z,102222.19
2018-12-30T12:47:01.213Z,102215.25
2018-12-30T12:49:29.861Z,102214.73
2018-12-30T12:51:58.475Z,102214.33
2018-12-30T12:54:32.037Z,102213.63
2018-12-30T12:56:57.691Z,102217.08
2018-12-30T12:59:26.327Z,102216.44
2018-12-30T13:01:55.100Z,102219.63
2018-12-30T13:04:23.794Z,102220.41
2018-12-30T13:06:52.467Z,102219.03
2018-12-30T13:09:21.150Z,102219.25
2018-12-30T13:11:49.712Z,102227.81
2018-12-30T13:14:18.389Z,102226.47
2018-12-30T13:16:47.032Z,102230.03
2018-12-30T13:19:15.675Z,102226.25
2018-12-30T13:21:44.435Z,102239.22
2018-12-30T13:24:13.088Z,102238.31
2018-12-30T13:26:41.758Z,102240.44
2018-12-30T13:29:11.788Z,102236.76
2018-12-30T13:31:48.384Z,102240.98
2018-12-30T13:34:17.041Z,102240.20
2018-12-30T13:36:45.715Z,102238.31
2018-12-30T13:39:14.457Z,102244.13
2018-12-30T13:41:43.087Z,102240.05
2018-12-30T13:44:11.935Z,102244.28
2018-12-30T13:46:40.554Z,102252.05
2018-12-30T13:49:09.340Z,102251.83
2018-12-30T13:51:37.971Z,102247.27
2018-12-30T13:54:06.584Z,102252.68
2018-12-30T13:56:35.271Z,102255.20
2018-12-30T13:59:04.004Z,102271.14
2018-12-30T14:01:32.724Z,102265.72
2018-12-30T14:04:01.410Z,102279.28
2018-12-30T14:06:30.206Z,102282.03
2018-12-30T14:08:58.910Z,102285.55
2018-12-30T14:11:27.650Z,102298.11
2018-12-30T14:13:56.619Z,102289.94
2018-12-30T14:16:25.435Z,102289.86
2018-12-30T14:18:54.077Z,102293.77
2018-12-30T14:21:22.885Z,102290.11
2018-12-30T14:23:55.333Z,102296.76
2018-12-30T14:26:23.975Z,102286.26
2018-12-30T14:28:52.600Z,102283.42
2018-12-30T14:31:21.289Z,102288.81
2018-12-30T14:33:49.950Z,102287.82
2018-12-30T14:36:18.811Z,102295.02
2018-12-30T14:38:47.526Z,102292.98
2018-12-30T14:41:16.214Z,102293.21
2018-12-30T14:43:47.015Z,102295.98
2018-12-30T14:46:15.708Z,102311.50
2018-12-30T14:48:44.462Z,102302.99
2018-12-30T14:51:13.282Z,102299.08
2018-12-30T14:53:42.034Z,102288.42
2018-12-30T14:56:10.856Z,102295.95
2018-12-30T14:58:39.557Z,102292.33
2018-12-30T15:01:14.746Z,102299.70
2018-12-30T15:03:38.773Z,102294.63
2018-12-30T15:06:07.509Z,102298.28
2018-12-30T15:08:36.246Z,102306.19
2018-12-30T15:11:05.201Z,102297.20
2018-12-30T15:13:33.923Z,102298.73
2018-12-30T15:16:02.723Z,102301.78
2018-12-30T15:18:31.439Z,102301.16
2018-12-30T15:21:00.254Z,102312.72
2018-12-30T15:23:28.993Z,102323.25
2018-12-30T15:25:57.642Z,102321.02
2018-12-30T15:28:26.286Z,102307.69
2018-12-30T15:30:54.968Z,102304.68
2018-12-30T15:33:23.626Z,102305.50
2018-12-30T15:35:52.320Z,102309.94
2018-12-30T15:38:21.041Z,102299.55
2018-12-30T15:40:49.671Z,102293.69
2018-12-30T15:43:18.302Z,102293.58
2018-12-30T15:45:46.967Z,102291.13
2018-12-30T15:48:15.591Z,102291.28
2018-12-30T15:50:44.257Z,102290.66
2018-12-30T15:53:12.886Z,102299.97
2018-12-30T15:55:41.598Z,102299.33
2018-12-30T15:58:10.215Z,102288.39
2018-12-30T16:00:39.035Z,102273.00
2018-12-30T16:03:07.719Z,102255.70
2018-12-30T16:05:36.329Z,102256.43
2018-12-30T16:08:05.076Z,102261.77
2018-12-30T16:10:33.907Z,102265.78
2018-12-30T16:13:02.768Z,102275.23
2018-12-30T16:15:31.734Z,102277.52
2018-12-30T16:18:00.405Z,102272.53
2018-12-30T16:20:29.382Z,102278.14
2018-12-30T16:22:58.320Z,102291.97
2018-12-30T16:25:27.438Z,102284.84
2018-12-30T16:27:56.179Z,102279.04
2018-12-30T16:30:24.787Z,102273.42
2018-12-30T16:32:53.426Z,102283.28
2018-12-30T16:35:22.175Z,102272.48
2018-12-30T16:37:51.040Z,102268.53
2018-12-30T16:40:19.781Z,102273.76
2018-12-30T16:42:48.661Z,102286.75
2018-12-30T16:45:17.374Z,102292.89
2018-12-30T16:47:46.097Z,102294.97
2018-12-30T16:50:14.803Z,102287.56
2018-12-30T16:52:43.607Z,102292.07
2018-12-30T16:55:12.422Z,102295.83
2018-12-30T16:57:41.356Z,102294.22
2018-12-30T17:00:10.520Z,102293.73
2018-12-30T17:02:57.442Z,102292.31
2018-12-30T17:05:31.739Z,102293.20
2018-12-30T17:08:18.643Z,102290.77
2018-12-30T17:10:47.268Z,102287.30
2018-12-30T17:13:15.913Z,102296.38
2018-12-30T17:15:46.039Z,102293.74
2018-12-30T17:18:14.986Z,102288.48
2018-12-30T17:20:43.841Z,102288.72
2018-12-30T17:23:13.962Z,102285.55
2018-12-30T17:25:46.648Z,102273.94
2018-12-30T17:28:15.535Z,102278.31
2018-12-30T17:30:44.857Z,102277.27
2018-12-30T17:33:13.848Z,102280.06
2018-12-30T17:35:42.646Z,102275.35
2018-12-30T17:38:12.334Z,102270.13
2018-12-30T17:40:41.795Z,102282.58
2018-12-30T17:43:13.261Z,102284.29
2018-12-30T17:45:45.083Z,102292.89
2018-12-30T17:48:13.864Z,102289.64
2018-12-30T17:50:42.900Z,102285.28
2018-12-30T17:53:12.068Z,102295.58
2018-12-30T17:55:41.054Z,102290.23
2018-12-30T17:58:09.886Z,102283.06
2018-12-30T18:00:41.320Z,102286.61
2018-12-30T18:03:11.595Z,102291.11
2018-12-30T18:05:40.527Z,102285.31
2018-12-30T18:08:09.357Z,102306.12
2018-12-30T18:10:38.535Z,102310.48
2018-12-30T18:13:07.874Z,102303.59
2018-12-30T18:15:38.718Z,102304.92
2018-12-30T18:18:08.989Z,102310.72
2018-12-30T18:20:38.479Z,102306.97
2018-12-30T18:54:25.902Z,102299.47
2018-12-30T18:58:11.193Z,102302.95
2018-12-30T19:01:30.670Z,102310.35
2018-12-30T19:04:46.121Z,102309.63
2018-12-30T19:08:21.920Z,102313.41
2018-12-30T19:11:24.682Z,102315.09
2018-12-30T21:40:46.758Z,102238.12
2018-12-30T21:43:55.982Z,102243.82
2018-12-30T21:54:50.144Z,102235.14
2018-12-30T21:58:13.759Z,102236.84
2018-12-30T22:16:44.428Z,102233.62
2018-12-30T22:19:16.500Z,102225.76
2018-12-30T22:22:02.167Z,102231.58
2018-12-30T22:28:11.587Z,102210.30
2018-12-30T22:34:48.678Z,102224.92
2018-12-30T22:37:32.823Z,102225.03
2018-12-30T22:40:34.657Z,102227.45
2018-12-30T22:47:08.908Z,102219.73
2018-12-30T22:54:12.902Z,102212.47
2018-12-30T23:00:55.409Z,102210.41
2018-12-30T23:03:57.458Z,102210.41
2018-12-30T23:10:24.513Z,102217.88
2018-12-30T23:13:20.664Z,102224.10
2018-12-30T23:15:54.670Z,102220.44
2018-12-30T23:18:32.196Z,102216.13
2018-12-30T23:21:16.901Z,102199.67
2018-12-30T23:24:13.823Z,102200.17
2018-12-30T23:30:50.507Z,102213.31
2018-12-30T23:33:39.117Z,102212.25
2018-12-30T23:37:03.213Z,102210.30
2018-12-30T23:40:04.286Z,102212.48
2018-12-30T23:42:34.530Z,102217.22
2018-12-30T23:45:03.236Z,102213.78
2018-12-30T23:47:32.030Z,102214.30
2018-12-30T23:50:00.794Z,102215.14
2018-12-30T23:52:29.681Z,102216.23
2018-12-30T23:54:58.398Z,102205.86
2018-12-30T23:57:27.144Z,102204.53
2018-12-30T23:59:56.456Z,102198.12
